sensor_id;sensor_type;location;lat;lon;timestamp;temperature;humidity
40758;DHT22;26462;47.384;19.218;2023-03-14T00:02:14;8.30;71.80
40758;DHT22;26462;47.384;19.218;2023-03-14T00:04:42;8.20;72.10
40758;DHT22;26462;47.384;19.218;2023-03-14T00:07:13;8.20;72.30
40758;DHT22;26462;47.384;19.218;2023-03-14T00:09:40;8.20;72.30
40758;DHT22;26462;47.384;19.218;2023-03-14T00:12:08;8.20;72.50
40758;DHT22;26462;47.384;19.218;2023-03-14T00:14:35;8.20;72.50
40758;DHT22;26462;47.384;19.218;2023-03-14T00:17:02;8.10;72.60
40758;DHT22;26462;47.384;19.218;2023-03-14T00:19:29;8.10;72.90
40758;DHT22;26462;47.384;19.218;2023-03-14T00:21:57;8.10;73.00
40758;DHT22;26462;47.384;19.218;2023-03-14T00:24:24;8.10;72.70
40758;DHT22;26462;47.384;19.218;2023-03-14T00:26:51;8.10;73.20
40758;DHT22;26462;47.384;19.218;2023-03-14T00:29:18;8.10;73.10
40758;DHT22;26462;47.384;19.218;2023-03-14T00:31:45;8.10;73.20
40758;DHT22;26462;47.384;19.218;2023-03-14T00:34:12;8.20;73.00
40758;DHT22;26462;47.384;19.218;2023-03-14T00:36:39;8.20;72.80
40758;DHT22;26462;47.384;19.218;2023-03-14T00:39:06;8.20;72.80
40758;DHT22;26462;47.384;19.218;2023-03-14T00:41:33;8.20;73.10
40758;DHT22;26462;47.384;19.218;2023-03-14T00:44:00;8.10;73.10
40758;DHT22;26462;47.384;19.218;2023-03-14T00:46:28;8.10;73.50
40758;DHT22;26462;47.384;19.218;2023-03-14T00:48:55;8.00;73.80
40758;DHT22;26462;47.384;19.218;2023-03-14T00:51:22;8.00;73.70
40758;DHT22;26462;47.384;19.218;2023-03-14T00:53:49;8.10;73.90
40758;DHT22;26462;47.384;19.218;2023-03-14T00:56:18;8.00;73.90
40758;DHT22;26462;47.384;19.218;2023-03-14T00:58:46;8.10;74.20
40758;DHT22;26462;47.384;19.218;2023-03-14T01:01:18;8.10;73.90
40758;DHT22;26462;47.384;19.218;2023-03-14T01:03:46;8.10;74.00
40758;DHT22;26462;47.384;19.218;2023-03-14T01:06:20;8.10;74.10
40758;DHT22;26462;47.384;19.218;2023-03-14T01:08:47;8.10;74.20
40758;DHT22;26462;47.384;19.218;2023-03-14T01:11:26;8.10;74.30
40758;DHT22;26462;47.384;19.218;2023-03-14T01:13:54;8.10;74.20
40758;DHT22;26462;47.384;19.218;2023-03-14T01:16:24;8.00;74.60
40758;DHT22;26462;47.384;19.218;2023-03-14T01:18:52;8.00;74.50
40758;DHT22;26462;47.384;19.218;2023-03-14T01:21:29;8.10;74.40
40758;DHT22;26462;47.384;19.218;2023-03-14T01:23:58;8.00;74.70
40758;DHT22;26462;47.384;19.218;2023-03-14T01:26:29;7.90;74.70
40758;DHT22;26462;47.384;19.218;2023-03-14T01:28:56;7.90;74.90
40758;DHT22;26462;47.384;19.218;2023-03-14T01:31:25;7.90;75.30
40758;DHT22;26462;47.384;19.218;2023-03-14T01:33:53;7.80;75.60
40758;DHT22;26462;47.384;19.218;2023-03-14T01:36:20;7.80;76.30
40758;DHT22;26462;47.384;19.218;2023-03-14T01:38:48;7.80;76.50
40758;DHT22;26462;47.384;19.218;2023-03-14T01:41:20;7.70;76.50
40758;DHT22;26462;47.384;19.218;2023-03-14T01:43:48;7.70;76.70
40758;DHT22;26462;47.384;19.218;2023-03-14T01:46:34;7.70;76.60
40758;DHT22;26462;47.384;19.218;2023-03-14T01:54:43;7.70;77.20
40758;DHT22;26462;47.384;19.218;2023-03-14T01:57:24;7.70;77.50
40758;DHT22;26462;47.384;19.218;2023-03-14T02:00:07;7.60;77.70
40758;DHT22;26462;47.384;19.218;2023-03-14T02:02:47;7.60;77.70
40758;DHT22;26462;47.384;19.218;2023-03-14T02:05:19;7.60;77.80
40758;DHT22;26462;47.384;19.218;2023-03-14T02:07:56;7.60;78.10
40758;DHT22;26462;47.384;19.218;2023-03-14T02:10:33;7.60;78.60
40758;DHT22;26462;47.384;19.218;2023-03-14T02:13:04;7.50;78.60
40758;DHT22;26462;47.384;19.218;2023-03-14T02:15:57;7.60;78.80
40758;DHT22;26462;47.384;19.218;2023-03-14T02:18:52;7.60;78.60
40758;DHT22;26462;47.384;19.218;2023-03-14T02:22:07;7.60;78.50
40758;DHT22;26462;47.384;19.218;2023-03-14T02:27:54;7.70;78.90
40758;DHT22;26462;47.384;19.218;2023-03-14T02:30:28;7.60;78.60
40758;DHT22;26462;47.384;19.218;2023-03-14T02:33:01;7.60;78.90
40758;DHT22;26462;47.384;19.218;2023-03-14T02:35:57;7.60;78.90
40758;DHT22;26462;47.384;19.218;2023-03-14T02:38:31;7.50;79.30
40758;DHT22;26462;47.384;19.218;2023-03-14T02:41:02;7.50;79.30
40758;DHT22;26462;47.384;19.218;2023-03-14T02:43:33;7.50;79.40
40758;DHT22;26462;47.384;19.218;2023-03-14T02:46:05;7.50;80.40
40758;DHT22;26462;47.384;19.218;2023-03-14T02:49:02;7.50;79.90
40758;DHT22;26462;47.384;19.218;2023-03-14T02:51:32;7.40;79.90
40758;DHT22;26462;47.384;19.218;2023-03-14T02:53:59;7.40;79.90
40758;DHT22;26462;47.384;19.218;2023-03-14T02:56:26;7.40;80.10
40758;DHT22;26462;47.384;19.218;2023-03-14T02:58:54;7.40;80.30
40758;DHT22;26462;47.384;19.218;2023-03-14T03:01:47;7.40;80.50
40758;DHT22;26462;47.384;19.218;2023-03-14T03:04:14;7.40;80.60
40758;DHT22;26462;47.384;19.218;2023-03-14T03:06:45;7.40;80.90
40758;DHT22;26462;47.384;19.218;2023-03-14T03:09:13;7.40;80.80
40758;DHT22;26462;47.384;19.218;2023-03-14T03:11:40;7.40;80.80
40758;DHT22;26462;47.384;19.218;2023-03-14T03:14:10;7.40;80.80
40758;DHT22;26462;47.384;19.218;2023-03-14T03:16:37;7.40;80.90
40758;DHT22;26462;47.384;19.218;2023-03-14T03:19:05;7.40;80.80
40758;DHT22;26462;47.384;19.218;2023-03-14T03:21:32;7.40;80.90
40758;DHT22;26462;47.384;19.218;2023-03-14T03:23:59;7.40;80.90
40758;DHT22;26462;47.384;19.218;2023-03-14T03:26:26;7.40;81.20
40758;DHT22;26462;47.384;19.218;2023-03-14T03:28:53;7.40;81.20
40758;DHT22;26462;47.384;19.218;2023-03-14T03:31:22;7.40;81.20
40758;DHT22;26462;47.384;19.218;2023-03-14T03:33:49;7.40;81.30
40758;DHT22;26462;47.384;19.218;2023-03-14T03:36:21;7.60;81.00
40758;DHT22;26462;47.384;19.218;2023-03-14T03:38:50;7.70;80.40
40758;DHT22;26462;47.384;19.218;2023-03-14T03:41:18;7.70;80.00
40758;DHT22;26462;47.384;19.218;2023-03-14T03:43:49;7.70;79.90
40758;DHT22;26462;47.384;19.218;2023-03-14T03:46:24;7.70;80.00
40758;DHT22;26462;47.384;19.218;2023-03-14T03:48:55;7.80;79.90
40758;DHT22;26462;47.384;19.218;2023-03-14T03:51:24;7.80;80.00
40758;DHT22;26462;47.384;19.218;2023-03-14T03:53:51;7.80;79.60
40758;DHT22;26462;47.384;19.218;2023-03-14T03:56:26;7.70;79.60
40758;DHT22;26462;47.384;19.218;2023-03-14T03:58:53;7.80;79.40
40758;DHT22;26462;47.384;19.218;2023-03-14T04:01:21;7.80;79.30
40758;DHT22;26462;47.384;19.218;2023-03-14T04:03:51;7.80;79.40
40758;DHT22;26462;47.384;19.218;2023-03-14T04:06:19;7.70;79.40
40758;DHT22;26462;47.384;19.218;2023-03-14T04:08:48;7.70;79.60
40758;DHT22;26462;47.384;19.218;2023-03-14T04:11:30;7.70;79.80
40758;DHT22;26462;47.384;19.218;2023-03-14T04:14:11;7.60;80.20
40758;DHT22;26462;47.384;19.218;2023-03-14T04:16:38;7.60;80.20
40758;DHT22;26462;47.384;19.218;2023-03-14T04:19:13;7.50;80.40
40758;DHT22;26462;47.384;19.218;2023-03-14T04:21:45;7.50;80.50
40758;DHT22;26462;47.384;19.218;2023-03-14T04:24:17;7.50;80.70
40758;DHT22;26462;47.384;19.218;2023-03-14T04:26:47;7.50;81.30
40758;DHT22;26462;47.384;19.218;2023-03-14T04:29:14;7.50;80.70
40758;DHT22;26462;47.384;19.218;2023-03-14T04:31:44;7.40;80.60
40758;DHT22;26462;47.384;19.218;2023-03-14T04:34:11;7.40;80.40
40758;DHT22;26462;47.384;19.218;2023-03-14T04:36:51;7.40;80.60
40758;DHT22;26462;47.384;19.218;2023-03-14T04:39:24;7.40;80.50
40758;DHT22;26462;47.384;19.218;2023-03-14T04:41:59;7.50;80.40
40758;DHT22;26462;47.384;19.218;2023-03-14T04:44:27;7.50;79.90
40758;DHT22;26462;47.384;19.218;2023-03-14T04:46:54;7.50;79.60
40758;DHT22;26462;47.384;19.218;2023-03-14T04:49:22;7.60;79.70
40758;DHT22;26462;47.384;19.218;2023-03-14T04:51:52;7.60;79.50
40758;DHT22;26462;47.384;19.218;2023-03-14T04:54:21;7.70;79.00
40758;DHT22;26462;47.384;19.218;2023-03-14T04:56:56;7.60;78.60
40758;DHT22;26462;47.384;19.218;2023-03-14T04:59:23;7.60;78.80
40758;DHT22;26462;47.384;19.218;2023-03-14T05:01:54;7.60;79.00
40758;DHT22;26462;47.384;19.218;2023-03-14T05:04:44;7.60;79.00
40758;DHT22;26462;47.384;19.218;2023-03-14T05:07:33;7.60;78.90
40758;DHT22;26462;47.384;19.218;2023-03-14T05:10:21;7.50;78.70
40758;DHT22;26462;47.384;19.218;2023-03-14T05:13:24;7.50;78.80
40758;DHT22;26462;47.384;19.218;2023-03-14T05:16:14;7.60;79.10
40758;DHT22;26462;47.384;19.218;2023-03-14T05:19:05;7.50;79.20
40758;DHT22;26462;47.384;19.218;2023-03-14T05:21:50;7.50;79.30
40758;DHT22;26462;47.384;19.218;2023-03-14T05:24:32;7.50;79.40
40758;DHT22;26462;47.384;19.218;2023-03-14T05:27:02;7.50;79.30
40758;DHT22;26462;47.384;19.218;2023-03-14T05:29:56;7.60;79.20
40758;DHT22;26462;47.384;19.218;2023-03-14T05:32:45;7.70;79.30
40758;DHT22;26462;47.384;19.218;2023-03-14T05:35:22;7.80;78.60
40758;DHT22;26462;47.384;19.218;2023-03-14T05:38:06;7.90;78.20
40758;DHT22;26462;47.384;19.218;2023-03-14T05:40:56;8.00;78.10
40758;DHT22;26462;47.384;19.218;2023-03-14T05:43:36;8.10;77.50
40758;DHT22;26462;47.384;19.218;2023-03-14T05:46:32;8.10;77.80
40758;DHT22;26462;47.384;19.218;2023-03-14T05:49:24;8.10;77.20
40758;DHT22;26462;47.384;19.218;2023-03-14T05:52:09;8.10;77.50
40758;DHT22;26462;47.384;19.218;2023-03-14T05:54:45;8.20;77.50
40758;DHT22;26462;47.384;19.218;2023-03-14T05:57:48;8.20;77.70
40758;DHT22;26462;47.384;19.218;2023-03-14T06:00:41;8.30;77.10
40758;DHT22;26462;47.384;19.218;2023-03-14T06:03:19;8.30;77.00
40758;DHT22;26462;47.384;19.218;2023-03-14T06:05:50;8.40;77.20
40758;DHT22;26462;47.384;19.218;2023-03-14T06:08:19;8.40;76.90
40758;DHT22;26462;47.384;19.218;2023-03-14T06:10:46;8.70;75.70
40758;DHT22;26462;47.384;19.218;2023-03-14T06:13:14;8.90;75.20
40758;DHT22;26462;47.384;19.218;2023-03-14T06:15:42;8.50;73.80
40758;DHT22;26462;47.384;19.218;2023-03-14T06:18:11;9.30;73.50
40758;DHT22;26462;47.384;19.218;2023-03-14T06:20:40;9.40;73.30
40758;DHT22;26462;47.384;19.218;2023-03-14T06:23:10;9.50;73.50
40758;DHT22;26462;47.384;19.218;2023-03-14T06:25:37;9.60;73.20
40758;DHT22;26462;47.384;19.218;2023-03-14T06:28:04;9.80;72.50
40758;DHT22;26462;47.384;19.218;2023-03-14T06:30:32;9.90;72.20
40758;DHT22;26462;47.384;19.218;2023-03-14T06:32:59;9.90;72.50
40758;DHT22;26462;47.384;19.218;2023-03-14T06:35:27;10.10;71.70
40758;DHT22;26462;47.384;19.218;2023-03-14T06:37:54;10.30;71.00
40758;DHT22;26462;47.384;19.218;2023-03-14T06:40:21;10.40;70.60
40758;DHT22;26462;47.384;19.218;2023-03-14T06:43:07;10.60;70.40
40758;DHT22;26462;47.384;19.218;2023-03-14T06:45:36;10.80;70.90
40758;DHT22;26462;47.384;19.218;2023-03-14T06:48:03;10.80;70.00
40758;DHT22;26462;47.384;19.218;2023-03-14T06:50:37;10.70;69.90
40758;DHT22;26462;47.384;19.218;2023-03-14T06:53:05;11.20;70.60
40758;DHT22;26462;47.384;19.218;2023-03-14T06:55:34;11.20;69.90
40758;DHT22;26462;47.384;19.218;2023-03-14T06:58:01;11.10;69.30
40758;DHT22;26462;47.384;19.218;2023-03-14T07:00:31;11.10;70.00
40758;DHT22;26462;47.384;19.218;2023-03-14T07:02:58;11.10;70.40
40758;DHT22;26462;47.384;19.218;2023-03-14T07:05:33;10.90;70.40
40758;DHT22;26462;47.384;19.218;2023-03-14T07:08:00;11.10;70.30
40758;DHT22;26462;47.384;19.218;2023-03-14T07:10:27;11.20;70.60
40758;DHT22;26462;47.384;19.218;2023-03-14T07:12:55;11.30;70.50
40758;DHT22;26462;47.384;19.218;2023-03-14T07:15:25;11.30;70.70
40758;DHT22;26462;47.384;19.218;2023-03-14T07:17:57;11.30;70.50
40758;DHT22;26462;47.384;19.218;2023-03-14T07:20:25;11.40;70.80
40758;DHT22;26462;47.384;19.218;2023-03-14T07:22:52;11.50;70.70
40758;DHT22;26462;47.384;19.218;2023-03-14T07:25:32;11.70;70.70
40758;DHT22;26462;47.384;19.218;2023-03-14T07:28:01;11.80;70.40
40758;DHT22;26462;47.384;19.218;2023-03-14T07:30:29;12.00;70.10
40758;DHT22;26462;47.384;19.218;2023-03-14T07:32:58;12.10;69.30
40758;DHT22;26462;47.384;19.218;2023-03-14T07:35:25;12.10;69.30
40758;DHT22;26462;47.384;19.218;2023-03-14T07:37:52;12.30;69.40
40758;DHT22;26462;47.384;19.218;2023-03-14T07:40:30;12.40;68.70
40758;DHT22;26462;47.384;19.218;2023-03-14T07:42:59;12.50;68.20
40758;DHT22;26462;47.384;19.218;2023-03-14T07:45:35;12.60;68.20
40758;DHT22;26462;47.384;19.218;2023-03-14T07:48:08;12.80;68.00
40758;DHT22;26462;47.384;19.218;2023-03-14T07:50:35;12.90;67.60
40758;DHT22;26462;47.384;19.218;2023-03-14T07:53:02;13.10;67.60
40758;DHT22;26462;47.384;19.218;2023-03-14T07:55:32;13.10;67.20
40758;DHT22;26462;47.384;19.218;2023-03-14T07:58:03;13.20;67.90
40758;DHT22;26462;47.384;19.218;2023-03-14T08:00:30;13.20;67.90
40758;DHT22;26462;47.384;19.218;2023-03-14T08:02:57;13.20;67.70
40758;DHT22;26462;47.384;19.218;2023-03-14T08:05:24;13.20;68.00
40758;DHT22;26462;47.384;19.218;2023-03-14T08:07:51;13.30;67.90
40758;DHT22;26462;47.384;19.218;2023-03-14T08:10:19;13.40;68.10
40758;DHT22;26462;47.384;19.218;2023-03-14T08:12:50;13.70;68.40
40758;DHT22;26462;47.384;19.218;2023-03-14T08:15:17;13.80;66.90
40758;DHT22;26462;47.384;19.218;2023-03-14T08:17:45;13.80;66.80
40758;DHT22;26462;47.384;19.218;2023-03-14T08:20:12;14.00;67.00
40758;DHT22;26462;47.384;19.218;2023-03-14T08:22:40;14.00;65.90
40758;DHT22;26462;47.384;19.218;2023-03-14T08:25:08;14.10;65.40
40758;DHT22;26462;47.384;19.218;2023-03-14T08:27:38;14.20;65.00
40758;DHT22;26462;47.384;19.218;2023-03-14T08:30:08;14.30;65.10
40758;DHT22;26462;47.384;19.218;2023-03-14T08:32:36;14.50;65.10
40758;DHT22;26462;47.384;19.218;2023-03-14T08:35:04;14.30;64.50
40758;DHT22;26462;47.384;19.218;2023-03-14T08:37:33;14.40;64.30
40758;DHT22;26462;47.384;19.218;2023-03-14T08:40:00;14.40;64.40
40758;DHT22;26462;47.384;19.218;2023-03-14T08:42:27;14.50;64.50
40758;DHT22;26462;47.384;19.218;2023-03-14T08:44:54;14.70;64.50
40758;DHT22;26462;47.384;19.218;2023-03-14T08:47:21;14.80;63.80
40758;DHT22;26462;47.384;19.218;2023-03-14T08:49:51;14.80;63.40
40758;DHT22;26462;47.384;19.218;2023-03-14T08:52:18;14.80;63.90
40758;DHT22;26462;47.384;19.218;2023-03-14T08:54:46;14.90;63.30
40758;DHT22;26462;47.384;19.218;2023-03-14T08:57:13;14.90;63.30
40758;DHT22;26462;47.384;19.218;2023-03-14T08:59:40;15.00;62.80
40758;DHT22;26462;47.384;19.218;2023-03-14T09:02:12;15.10;62.70
40758;DHT22;26462;47.384;19.218;2023-03-14T09:04:39;15.00;62.30
40758;DHT22;26462;47.384;19.218;2023-03-14T09:07:07;15.10;62.80
40758;DHT22;26462;47.384;19.218;2023-03-14T09:09:34;15.10;63.50
40758;DHT22;26462;47.384;19.218;2023-03-14T09:12:01;15.10;62.80
40758;DHT22;26462;47.384;19.218;2023-03-14T09:14:28;15.20;62.50
40758;DHT22;26462;47.384;19.218;2023-03-14T09:16:55;15.30;62.70
40758;DHT22;26462;47.384;19.218;2023-03-14T09:19:22;15.20;63.40
40758;DHT22;26462;47.384;19.218;2023-03-14T09:21:50;15.30;63.30
40758;DHT22;26462;47.384;19.218;2023-03-14T09:24:17;15.50;63.50
40758;DHT22;26462;47.384;19.218;2023-03-14T09:26:44;15.60;63.80
40758;DHT22;26462;47.384;19.218;2023-03-14T09:29:13;15.70;63.30
40758;DHT22;26462;47.384;19.218;2023-03-14T09:31:40;15.80;62.90
40758;DHT22;26462;47.384;19.218;2023-03-14T09:34:07;15.90;62.30
40758;DHT22;26462;47.384;19.218;2023-03-14T09:36:34;16.00;62.50
40758;DHT22;26462;47.384;19.218;2023-03-14T09:39:01;16.20;62.90
40758;DHT22;26462;47.384;19.218;2023-03-14T09:41:33;16.30;63.00
40758;DHT22;26462;47.384;19.218;2023-03-14T09:44:08;16.40;63.10
40758;DHT22;26462;47.384;19.218;2023-03-14T09:46:38;16.40;62.60
40758;DHT22;26462;47.384;19.218;2023-03-14T09:49:12;16.50;62.40
40758;DHT22;26462;47.384;19.218;2023-03-14T09:51:41;16.50;62.20
40758;DHT22;26462;47.384;19.218;2023-03-14T09:54:39;16.40;62.30
40758;DHT22;26462;47.384;19.218;2023-03-14T09:57:14;16.50;63.00
40758;DHT22;26462;47.384;19.218;2023-03-14T09:59:44;16.80;62.10
40758;DHT22;26462;47.384;19.218;2023-03-14T10:02:24;16.80;61.20
40758;DHT22;26462;47.384;19.218;2023-03-14T10:04:53;17.00;61.50
40758;DHT22;26462;47.384;19.218;2023-03-14T10:07:31;17.00;60.70
40758;DHT22;26462;47.384;19.218;2023-03-14T10:09:59;17.00;60.70
40758;DHT22;26462;47.384;19.218;2023-03-14T10:12:35;17.20;60.50
40758;DHT22;26462;47.384;19.218;2023-03-14T10:15:08;17.30;60.40
40758;DHT22;26462;47.384;19.218;2023-03-14T10:17:41;17.40;60.00
40758;DHT22;26462;47.384;19.218;2023-03-14T10:25:34;17.50;59.60
40758;DHT22;26462;47.384;19.218;2023-03-14T10:28:04;17.40;58.80
40758;DHT22;26462;47.384;19.218;2023-03-14T10:30:44;17.40;59.30
40758;DHT22;26462;47.384;19.218;2023-03-14T10:33:33;17.60;59.30
40758;DHT22;26462;47.384;19.218;2023-03-14T10:38:35;17.90;59.70
40758;DHT22;26462;47.384;19.218;2023-03-14T10:41:24;18.00;58.90
40758;DHT22;26462;47.384;19.218;2023-03-14T10:43:54;18.00;59.80
40758;DHT22;26462;47.384;19.218;2023-03-14T10:46:26;18.30;59.00
40758;DHT22;26462;47.384;19.218;2023-03-14T10:49:29;18.20;59.40
40758;DHT22;26462;47.384;19.218;2023-03-14T10:55:09;18.30;59.60
40758;DHT22;26462;47.384;19.218;2023-03-14T10:57:40;18.10;59.60
40758;DHT22;26462;47.384;19.218;2023-03-14T11:00:18;18.00;59.80
40758;DHT22;26462;47.384;19.218;2023-03-14T11:05:34;18.10;60.50
40758;DHT22;26462;47.384;19.218;2023-03-14T11:08:16;18.00;60.30
40758;DHT22;26462;47.384;19.218;2023-03-14T11:10:48;18.10;60.90
40758;DHT22;26462;47.384;19.218;2023-03-14T11:18:54;18.70;58.20
40758;DHT22;26462;47.384;19.218;2023-03-14T11:27:03;19.30;57.40
40758;DHT22;26462;47.384;19.218;2023-03-14T11:29:49;19.30;56.50
40758;DHT22;26462;47.384;19.218;2023-03-14T11:35:30;19.70;56.10
40758;DHT22;26462;47.384;19.218;2023-03-14T11:40:38;19.40;55.40
40758;DHT22;26462;47.384;19.218;2023-03-14T11:43:17;19.30;55.60
40758;DHT22;26462;47.384;19.218;2023-03-14T11:45:48;19.70;55.90
40758;DHT22;26462;47.384;19.218;2023-03-14T11:48:38;19.90;54.90
40758;DHT22;26462;47.384;19.218;2023-03-14T11:51:23;20.00;54.70
40758;DHT22;26462;47.384;19.218;2023-03-14T11:53:55;19.90;54.50
40758;DHT22;26462;47.384;19.218;2023-03-14T11:56:41;19.70;54.80
40758;DHT22;26462;47.384;19.218;2023-03-14T11:59:24;19.70;55.00
40758;DHT22;26462;47.384;19.218;2023-03-14T12:02:03;19.80;56.00
40758;DHT22;26462;47.384;19.218;2023-03-14T12:04:43;19.60;55.10
40758;DHT22;26462;47.384;19.218;2023-03-14T12:07:23;19.70;54.80
40758;DHT22;26462;47.384;19.218;2023-03-14T12:09:54;20.10;54.60
40758;DHT22;26462;47.384;19.218;2023-03-14T12:12:24;19.80;54.30
40758;DHT22;26462;47.384;19.218;2023-03-14T12:14:58;19.40;54.10
40758;DHT22;26462;47.384;19.218;2023-03-14T12:17:35;19.30;54.60
40758;DHT22;26462;47.384;19.218;2023-03-14T12:20:19;19.10;54.80
40758;DHT22;26462;47.384;19.218;2023-03-14T12:22:51;18.90;54.70
40758;DHT22;26462;47.384;19.218;2023-03-14T12:25:25;18.90;54.70
40758;DHT22;26462;47.384;19.218;2023-03-14T12:30:40;18.00;54.30
40758;DHT22;26462;47.384;19.218;2023-03-14T12:35:46;18.80;56.30
40758;DHT22;26462;47.384;19.218;2023-03-14T12:38:28;18.70;55.30
40758;DHT22;26462;47.384;19.218;2023-03-14T12:43:34;18.60;54.60
40758;DHT22;26462;47.384;19.218;2023-03-14T12:48:49;18.50;54.80
40758;DHT22;26462;47.384;19.218;2023-03-14T12:51:37;18.40;55.20
40758;DHT22;26462;47.384;19.218;2023-03-14T13:02:41;18.40;55.20
40758;DHT22;26462;47.384;19.218;2023-03-14T13:12:54;18.70;54.10
40758;DHT22;26462;47.384;19.218;2023-03-14T13:15:27;18.60;53.90
40758;DHT22;26462;47.384;19.218;2023-03-14T13:18:08;18.60;54.00
40758;DHT22;26462;47.384;19.218;2023-03-14T13:20:59;18.50;54.50
40758;DHT22;26462;47.384;19.218;2023-03-14T13:23:31;17.90;53.90
40758;DHT22;26462;47.384;19.218;2023-03-14T13:26:00;18.20;54.70
40758;DHT22;26462;47.384;19.218;2023-03-14T13:28:29;18.20;56.20
40758;DHT22;26462;47.384;19.218;2023-03-14T13:31:02;18.00;57.90
40758;DHT22;26462;47.384;19.218;2023-03-14T13:33:30;18.00;59.00
40758;DHT22;26462;47.384;19.218;2023-03-14T13:36:01;17.90;59.90
40758;DHT22;26462;47.384;19.218;2023-03-14T13:38:35;17.80;60.60
40758;DHT22;26462;47.384;19.218;2023-03-14T13:41:07;17.40;60.20
40758;DHT22;26462;47.384;19.218;2023-03-14T13:43:42;17.50;59.90
40758;DHT22;26462;47.384;19.218;2023-03-14T13:46:16;17.60;59.90
40758;DHT22;26462;47.384;19.218;2023-03-14T13:49:03;17.60;61.90
40758;DHT22;26462;47.384;19.218;2023-03-14T13:51:32;17.50;62.00
40758;DHT22;26462;47.384;19.218;2023-03-14T13:54:00;17.20;62.20
40758;DHT22;26462;47.384;19.218;2023-03-14T13:56:32;17.30;61.80
40758;DHT22;26462;47.384;19.218;2023-03-14T13:59:00;17.30;61.30
40758;DHT22;26462;47.384;19.218;2023-03-14T14:01:33;17.30;61.90
40758;DHT22;26462;47.384;19.218;2023-03-14T14:04:07;17.00;62.30
40758;DHT22;26462;47.384;19.218;2023-03-14T14:06:44;17.30;62.00
40758;DHT22;26462;47.384;19.218;2023-03-14T14:09:19;17.30;62.20
40758;DHT22;26462;47.384;19.218;2023-03-14T14:14:45;17.30;62.30
40758;DHT22;26462;47.384;19.218;2023-03-14T14:17:20;17.30;61.70
40758;DHT22;26462;47.384;19.218;2023-03-14T14:19:49;17.20;62.30
40758;DHT22;26462;47.384;19.218;2023-03-14T14:22:18;17.20;62.20
40758;DHT22;26462;47.384;19.218;2023-03-14T14:24:45;17.20;61.70
40758;DHT22;26462;47.384;19.218;2023-03-14T14:27:20;17.10;61.60
40758;DHT22;26462;47.384;19.218;2023-03-14T14:30:03;17.00;61.30
40758;DHT22;26462;47.384;19.218;2023-03-14T14:32:36;17.00;61.30
40758;DHT22;26462;47.384;19.218;2023-03-14T14:35:04;17.00;61.30
40758;DHT22;26462;47.384;19.218;2023-03-14T14:37:34;16.90;61.40
40758;DHT22;26462;47.384;19.218;2023-03-14T14:40:16;17.00;61.10
40758;DHT22;26462;47.384;19.218;2023-03-14T14:42:44;17.00;60.90
40758;DHT22;26462;47.384;19.218;2023-03-14T14:45:18;16.90;60.70
40758;DHT22;26462;47.384;19.218;2023-03-14T14:50:33;17.10;61.60
40758;DHT22;26462;47.384;19.218;2023-03-14T14:53:18;16.60;61.50
40758;DHT22;26462;47.384;19.218;2023-03-14T14:55:50;16.50;61.50
40758;DHT22;26462;47.384;19.218;2023-03-14T14:58:39;16.60;61.60
40758;DHT22;26462;47.384;19.218;2023-03-14T15:01:22;16.50;61.70
40758;DHT22;26462;47.384;19.218;2023-03-14T15:03:51;16.40;62.40
40758;DHT22;26462;47.384;19.218;2023-03-14T15:06:20;16.40;62.60
40758;DHT22;26462;47.384;19.218;2023-03-14T15:08:48;16.30;62.80
40758;DHT22;26462;47.384;19.218;2023-03-14T15:11:21;16.30;63.10
40758;DHT22;26462;47.384;19.218;2023-03-14T15:13:52;16.30;63.10
40758;DHT22;26462;47.384;19.218;2023-03-14T15:16:28;15.80;63.30
40758;DHT22;26462;47.384;19.218;2023-03-14T15:19:00;16.10;63.60
40758;DHT22;26462;47.384;19.218;2023-03-14T15:21:40;16.10;64.30
40758;DHT22;26462;47.384;19.218;2023-03-14T15:24:09;16.10;64.00
40758;DHT22;26462;47.384;19.218;2023-03-14T15:26:37;16.00;64.20
40758;DHT22;26462;47.384;19.218;2023-03-14T15:29:04;16.00;64.20
40758;DHT22;26462;47.384;19.218;2023-03-14T15:31:35;16.00;64.30
40758;DHT22;26462;47.384;19.218;2023-03-14T15:34:03;15.90;64.30
40758;DHT22;26462;47.384;19.218;2023-03-14T15:36:34;15.90;64.20
40758;DHT22;26462;47.384;19.218;2023-03-14T15:39:04;15.90;64.50
40758;DHT22;26462;47.384;19.218;2023-03-14T15:41:32;15.80;64.90
40758;DHT22;26462;47.384;19.218;2023-03-14T15:43:59;15.70;64.90
40758;DHT22;26462;47.384;19.218;2023-03-14T15:46:27;15.70;65.30
40758;DHT22;26462;47.384;19.218;2023-03-14T15:48:56;15.60;65.60
40758;DHT22;26462;47.384;19.218;2023-03-14T15:51:24;15.50;66.60
40758;DHT22;26462;47.384;19.218;2023-03-14T15:53:51;15.40;66.60
40758;DHT22;26462;47.384;19.218;2023-03-14T15:56:20;15.50;66.60
40758;DHT22;26462;47.384;19.218;2023-03-14T15:58:47;15.40;66.70
40758;DHT22;26462;47.384;19.218;2023-03-14T16:01:15;15.40;67.20
40758;DHT22;26462;47.384;19.218;2023-03-14T16:03:43;15.10;67.10
40758;DHT22;26462;47.384;19.218;2023-03-14T16:06:13;15.30;67.60
40758;DHT22;26462;47.384;19.218;2023-03-14T16:08:41;15.20;67.90
40758;DHT22;26462;47.384;19.218;2023-03-14T16:11:10;15.10;68.40
40758;DHT22;26462;47.384;19.218;2023-03-14T16:13:38;15.10;68.60
40758;DHT22;26462;47.384;19.218;2023-03-14T16:16:06;15.10;68.80
40758;DHT22;26462;47.384;19.218;2023-03-14T16:18:36;15.10;69.40
40758;DHT22;26462;47.384;19.218;2023-03-14T16:21:15;15.20;69.10
40758;DHT22;26462;47.384;19.218;2023-03-14T16:23:43;15.30;70.10
40758;DHT22;26462;47.384;19.218;2023-03-14T16:26:15;15.20;71.30
40758;DHT22;26462;47.384;19.218;2023-03-14T16:28:44;15.20;72.50
40758;DHT22;26462;47.384;19.218;2023-03-14T16:31:15;15.10;76.90
40758;DHT22;26462;47.384;19.218;2023-03-14T16:33:45;15.00;78.90
40758;DHT22;26462;47.384;19.218;2023-03-14T16:36:13;14.90;81.60
40758;DHT22;26462;47.384;19.218;2023-03-14T16:38:43;13.80;83.50
40758;DHT22;26462;47.384;19.218;2023-03-14T16:41:16;14.40;86.00
40758;DHT22;26462;47.384;19.218;2023-03-14T16:43:46;14.60;87.90
40758;DHT22;26462;47.384;19.218;2023-03-14T16:46:19;14.40;89.70
40758;DHT22;26462;47.384;19.218;2023-03-14T16:48:49;14.40;91.10
40758;DHT22;26462;47.384;19.218;2023-03-14T16:51:19;14.20;92.30
40758;DHT22;26462;47.384;19.218;2023-03-14T16:53:47;14.20;93.30
40758;DHT22;26462;47.384;19.218;2023-03-14T16:56:14;12.90;93.40
40758;DHT22;26462;47.384;19.218;2023-03-14T16:58:44;14.10;93.90
40758;DHT22;26462;47.384;19.218;2023-03-14T17:01:14;13.90;94.50
40758;DHT22;26462;47.384;19.218;2023-03-14T17:03:46;13.90;95.00
40758;DHT22;26462;47.384;19.218;2023-03-14T17:06:23;13.90;95.20
40758;DHT22;26462;47.384;19.218;2023-03-14T17:08:52;13.90;94.80